LSV weather

Nellis Air Force Base
Las Vegas, Nevada, United States

Public forecast

Using degrees Fahrenheit for public forecast. Weather courtesy of forecast.io.

Current aviation weather report (METAR) for Nellis Air Force Base

Retrieved 2020/04/09 15:58 UTC (52 minutes ago):

KLSV 091558Z AUTO 00000KT 10SM CLR 11/04 A3013 RMK AO2 SLPNO T01070044

Aviation forecast (TAF) for Nellis Air Force Base

Retrieved 2020/04/09 15:54 UTC (56 minutes ago):

TAF KLSV 091500Z 0915/1021 VRB06KT 9999 VCSH BKN060 620609 QNH3011INS BECMG 0917/0918 16010G20KT 9999 VCSH SCT040 BKN060 BKN090 620609 510009 QNH3001INS TEMPO 0920/1001 VRB15G25KT VCTS BKN040CB BECMG 1002/1003 34007KT 9999 NSW BKN050 BKN160 620509 510009 QNH3003INS BECMG 1017/1018 15010G20KT 9999 NSW BKN050 BKN210 620509 510009 QNH2998INS TX17/0923Z TN13/1013Z